sensor_id;sensor_type;location;lat;lon;timestamp;pressure;altitude;pressure_sealevel;temperature;humidity
24858;BME280;12935;50.782;6.074;2023-04-19T00:02:16;100343.00;;;11.11;100.00
24858;BME280;12935;50.782;6.074;2023-04-19T00:04:43;100345.34;;;11.12;100.00
24858;BME280;12935;50.782;6.074;2023-04-19T00:07:09;100340.66;;;11.13;100.00
24858;BME280;12935;50.782;6.074;2023-04-19T00:09:35;100343.03;;;11.18;100.00
24858;BME280;12935;50.782;6.074;2023-04-19T00:12:00;100334.84;;;11.18;100.00
24858;BME280;12935;50.782;6.074;2023-04-19T00:14:26;100335.66;;;11.22;100.00
24858;BME280;12935;50.782;6.074;2023-04-19T00:16:51;100335.28;;;11.23;100.00
24858;BME280;12935;50.782;6.074;2023-04-19T00:19:16;100331.75;;;11.23;100.00
24858;BME280;12935;50.782;6.074;2023-04-19T00:21:42;100332.16;;;11.25;100.00
24858;BME280;12935;50.782;6.074;2023-04-19T00:24:07;100340.47;;;11.32;100.00
24858;BME280;12935;50.782;6.074;2023-04-19T00:26:32;100331.47;;;11.32;100.00
24858;BME280;12935;50.782;6.074;2023-04-19T00:28:58;100331.47;;;11.35;100.00
24858;BME280;12935;50.782;6.074;2023-04-19T00:31:23;100333.44;;;11.38;100.00
24858;BME280;12935;50.782;6.074;2023-04-19T00:33:48;100327.59;;;11.40;100.00
24858;BME280;12935;50.782;6.074;2023-04-19T00:36:13;100337.38;;;11.41;100.00
24858;BME280;12935;50.782;6.074;2023-04-19T00:38:39;100333.13;;;11.43;100.00
24858;BME280;12935;50.782;6.074;2023-04-19T00:41:04;100333.13;;;11.43;100.00
24858;BME280;12935;50.782;6.074;2023-04-19T00:43:30;100338.22;;;11.45;100.00
24858;BME280;12935;50.782;6.074;2023-04-19T00:45:55;100328.84;;;11.46;100.00
24858;BME280;12935;50.782;6.074;2023-04-19T00:48:20;100321.41;;;11.46;100.00
24858;BME280;12935;50.782;6.074;2023-04-19T00:50:46;100329.25;;;11.48;100.00
24858;BME280;12935;50.782;6.074;2023-04-19T00:53:11;100336.28;;;11.49;100.00
24858;BME280;12935;50.782;6.074;2023-04-19T00:55:40;100335.88;;;11.50;100.00
24858;BME280;12935;50.782;6.074;2023-04-19T00:58:07;100323.41;;;11.53;100.00
24858;BME280;12935;50.782;6.074;2023-04-19T01:00:32;100322.63;;;11.49;100.00
24858;BME280;12935;50.782;6.074;2023-04-19T01:02:58;100327.69;;;11.50;100.00
24858;BME280;12935;50.782;6.074;2023-04-19T01:05:23;100327.31;;;11.52;100.00
24858;BME280;12935;50.782;6.074;2023-04-19T01:07:48;100327.25;;;11.45;100.00
24858;BME280;12935;50.782;6.074;2023-04-19T01:10:14;100325.72;;;11.47;100.00
24858;BME280;12935;50.782;6.074;2023-04-19T01:12:39;100321.75;;;11.41;100.00
24858;BME280;12935;50.782;6.074;2023-04-19T01:15:05;100325.31;;;11.45;100.00
24858;BME280;12935;50.782;6.074;2023-04-19T01:17:31;100327.28;;;11.48;100.00
24858;BME280;12935;50.782;6.074;2023-04-19T01:20:00;100322.63;;;11.49;100.00
24858;BME280;12935;50.782;6.074;2023-04-19T01:22:26;100318.69;;;11.46;100.00
24858;BME280;12935;50.782;6.074;2023-04-19T01:24:52;100322.56;;;11.45;100.00
24858;BME280;12935;50.782;6.074;2023-04-19T01:27:17;100315.50;;;11.41;100.00
24858;BME280;12935;50.782;6.074;2023-04-19T01:29:44;100313.59;;;11.45;100.00
24858;BME280;12935;50.782;6.074;2023-04-19T01:32:09;100313.63;;;11.48;100.00
24858;BME280;12935;50.782;6.074;2023-04-19T01:34:37;100317.13;;;11.49;100.00
24858;BME280;12935;50.782;6.074;2023-04-19T01:37:02;100312.31;;;11.35;100.00
24858;BME280;12935;50.782;6.074;2023-04-19T01:39:27;100315.50;;;11.41;100.00
24858;BME280;12935;50.782;6.074;2023-04-19T01:41:53;100311.22;;;11.43;100.00
24858;BME280;12935;50.782;6.074;2023-04-19T01:44:18;100316.31;;;11.45;100.00
24858;BME280;12935;50.782;6.074;2023-04-19T01:46:43;100320.25;;;11.47;100.00
24858;BME280;12935;50.782;6.074;2023-04-19T01:49:09;100310.88;;;11.48;100.00
24858;BME280;12935;50.782;6.074;2023-04-19T01:51:34;100314.78;;;11.51;100.00
24858;BME280;12935;50.782;6.074;2023-04-19T01:54:00;100315.56;;;11.48;100.00
24858;BME280;12935;50.782;6.074;2023-04-19T01:56:26;100314.00;;;11.47;100.00
24858;BME280;12935;50.782;6.074;2023-04-19T01:58:51;100304.88;;;11.32;100.00
24858;BME280;12935;50.782;6.074;2023-04-19T02:01:17;100312.31;;;11.32;100.00
24858;BME280;12935;50.782;6.074;2023-04-19T02:03:42;100311.13;;;11.29;100.00
24858;BME280;12935;50.782;6.074;2023-04-19T02:06:11;100311.53;;;11.31;100.00
24858;BME280;12935;50.782;6.074;2023-04-19T02:08:38;100306.00;;;11.28;100.00
24858;BME280;12935;50.782;6.074;2023-04-19T02:11:12;100300.47;;;11.20;100.00
24858;BME280;12935;50.782;6.074;2023-04-19T02:13:41;100303.56;;;11.15;100.00
24858;BME280;12935;50.782;6.074;2023-04-19T02:16:07;100308.97;;;11.08;100.00
24858;BME280;12935;50.782;6.074;2023-04-19T02:18:33;100299.00;;;10.86;100.00
24858;BME280;12935;50.782;6.074;2023-04-19T02:21:03;100295.06;;;10.83;100.00
24858;BME280;12935;50.782;6.074;2023-04-19T02:23:28;100290.69;;;10.75;100.00
24858;BME280;12935;50.782;6.074;2023-04-19T02:25:54;100296.09;;;10.72;100.00
24858;BME280;12935;50.782;6.074;2023-04-19T02:28:19;100294.13;;;10.69;100.00
24858;BME280;12935;50.782;6.074;2023-04-19T02:30:44;100299.56;;;10.65;100.00
24858;BME280;12935;50.782;6.074;2023-04-19T02:33:09;100301.50;;;10.65;100.00
24858;BME280;12935;50.782;6.074;2023-04-19T02:35:35;100294.72;;;10.51;100.00
24858;BME280;12935;50.782;6.074;2023-04-19T02:38:02;100294.75;;;10.55;100.00
24858;BME280;12935;50.782;6.074;2023-04-19T02:40:27;100299.41;;;10.51;100.00
24858;BME280;12935;50.782;6.074;2023-04-19T02:42:53;100302.06;;;10.44;100.00
24858;BME280;12935;50.782;6.074;2023-04-19T02:45:18;100302.78;;;10.41;100.00
24858;BME280;12935;50.782;6.074;2023-04-19T02:47:43;100300.81;;;10.38;100.00
24858;BME280;12935;50.782;6.074;2023-04-19T02:50:10;100301.56;;;10.35;100.00
24858;BME280;12935;50.782;6.074;2023-04-19T02:52:36;100301.50;;;10.31;100.00
24858;BME280;12935;50.782;6.074;2023-04-19T02:55:01;100300.72;;;10.31;100.00
24858;BME280;12935;50.782;6.074;2023-04-19T02:57:26;100307.72;;;10.28;100.00
24858;BME280;12935;50.782;6.074;2023-04-19T02:59:52;100309.59;;;10.24;100.00
24858;BME280;12935;50.782;6.074;2023-04-19T03:02:17;100305.31;;;10.23;100.00
24858;BME280;12935;50.782;6.074;2023-04-19T03:04:42;100304.91;;;10.21;100.00
24858;BME280;12935;50.782;6.074;2023-04-19T03:07:08;100310.28;;;10.17;100.00
24858;BME280;12935;50.782;6.074;2023-04-19T03:09:34;100312.19;;;10.13;100.00
24858;BME280;12935;50.782;6.074;2023-04-19T03:11:59;100312.59;;;10.15;100.00
24858;BME280;12935;50.782;6.074;2023-04-19T03:14:25;100309.50;;;10.17;100.00
24858;BME280;12935;50.782;6.074;2023-04-19T03:16:50;100309.09;;;10.15;100.00
24858;BME280;12935;50.782;6.074;2023-04-19T03:19:16;100304.81;;;10.17;100.00
24858;BME280;12935;50.782;6.074;2023-04-19T03:21:41;100308.41;;;9.95;100.00
24858;BME280;12935;50.782;6.074;2023-04-19T03:24:06;100308.06;;;9.97;100.00
24858;BME280;12935;50.782;6.074;2023-04-19T03:26:32;100298.56;;;9.87;100.00
24858;BME280;12935;50.782;6.074;2023-04-19T03:28:57;100299.81;;;9.93;100.00
24858;BME280;12935;50.782;6.074;2023-04-19T03:31:22;100291.00;;;10.03;100.00
24858;BME280;12935;50.782;6.074;2023-04-19T03:33:47;100299.69;;;10.12;100.00
24858;BME280;12935;50.782;6.074;2023-04-19T03:36:13;100294.00;;;10.21;100.00
24858;BME280;12935;50.782;6.074;2023-04-19T03:38:38;100295.94;;;10.24;100.00
24858;BME280;12935;50.782;6.074;2023-04-19T03:41:05;100291.97;;;10.18;100.00
24858;BME280;12935;50.782;6.074;2023-04-19T03:43:41;100286.97;;;10.24;100.00
24858;BME280;12935;50.782;6.074;2023-04-19T03:46:06;100285.81;;;10.25;100.00
24858;BME280;12935;50.782;6.074;2023-04-19T03:48:32;100282.34;;;10.28;100.00
24858;BME280;12935;50.782;6.074;2023-04-19T03:50:59;100282.69;;;10.23;100.00
24858;BME280;12935;50.782;6.074;2023-04-19T03:53:24;100281.50;;;10.24;100.00
24858;BME280;12935;50.782;6.074;2023-04-19T03:55:50;100288.97;;;10.27;100.00
24858;BME280;12935;50.782;6.074;2023-04-19T03:58:16;100280.34;;;10.25;100.00
24858;BME280;12935;50.782;6.074;2023-04-19T04:00:41;100286.69;;;10.32;100.00
24858;BME280;12935;50.782;6.074;2023-04-19T04:03:06;100283.91;;;10.29;100.00
24858;BME280;12935;50.782;6.074;2023-04-19T04:05:32;100277.72;;;10.32;100.00
24858;BME280;12935;50.782;6.074;2023-04-19T04:07:57;100284.28;;;10.27;100.00
24858;BME280;12935;50.782;6.074;2023-04-19T04:10:22;100279.97;;;10.26;100.00
24858;BME280;12935;50.782;6.074;2023-04-19T04:12:47;100287.44;;;10.29;100.00
24858;BME280;12935;50.782;6.074;2023-04-19T04:15:13;100285.53;;;10.33;100.00
24858;BME280;12935;50.782;6.074;2023-04-19T04:17:38;100293.78;;;10.37;100.00
24858;BME280;12935;50.782;6.074;2023-04-19T04:20:03;100293.00;;;10.40;100.00
24858;BME280;12935;50.782;6.074;2023-04-19T04:22:29;100287.97;;;10.42;100.00
24858;BME280;12935;50.782;6.074;2023-04-19T04:24:55;100291.50;;;10.42;100.00
24858;BME280;12935;50.782;6.074;2023-04-19T04:27:22;100285.53;;;10.33;100.00
24858;BME280;12935;50.782;6.074;2023-04-19T04:29:47;100290.97;;;10.30;100.00
24858;BME280;12935;50.782;6.074;2023-04-19T04:32:13;100294.38;;;10.23;100.00
24858;BME280;12935;50.782;6.074;2023-04-19T04:34:42;100295.50;;;10.18;100.00
24858;BME280;12935;50.782;6.074;2023-04-19T04:37:07;100295.56;;;10.22;100.00
24858;BME280;12935;50.782;6.074;2023-04-19T04:39:33;100301.41;;;10.21;100.00
24858;BME280;12935;50.782;6.074;2023-04-19T04:42:03;100301.09;;;10.29;100.00
24858;BME280;12935;50.782;6.074;2023-04-19T04:44:29;100302.34;;;10.35;100.00
24858;BME280;12935;50.782;6.074;2023-04-19T04:46:54;100300.81;;;10.38;100.00
24858;BME280;12935;50.782;6.074;2023-04-19T04:49:20;100310.25;;;10.44;100.00
24858;BME280;12935;50.782;6.074;2023-04-19T04:51:45;100308.66;;;10.43;100.00
24858;BME280;12935;50.782;6.074;2023-04-19T04:54:10;100311.09;;;10.48;100.00
24858;BME280;12935;50.782;6.074;2023-04-19T04:56:35;100316.59;;;10.51;100.00
24858;BME280;12935;50.782;6.074;2023-04-19T04:59:01;100316.91;;;10.46;100.00
24858;BME280;12935;50.782;6.074;2023-04-19T05:01:26;100315.03;;;10.50;100.00
24858;BME280;12935;50.782;6.074;2023-04-19T05:03:51;100316.59;;;10.51;100.00
24858;BME280;12935;50.782;6.074;2023-04-19T05:06:17;100319.34;;;10.55;100.00
24858;BME280;12935;50.782;6.074;2023-04-19T05:08:43;100319.34;;;10.55;100.00
24858;BME280;12935;50.782;6.074;2023-04-19T05:11:08;100318.84;;;10.46;100.00
24858;BME280;12935;50.782;6.074;2023-04-19T05:13:34;100316.53;;;10.48;100.00
24858;BME280;12935;50.782;6.074;2023-04-19T05:15:59;100310.72;;;10.49;100.00
24858;BME280;12935;50.782;6.074;2023-04-19T05:18:25;100307.97;;;10.49;100.00
24858;BME280;12935;50.782;6.074;2023-04-19T05:20:51;100313.13;;;10.54;100.00
24858;BME280;12935;50.782;6.074;2023-04-19T05:23:16;100310.81;;;10.60;100.00
24858;BME280;12935;50.782;6.074;2023-04-19T05:25:42;100315.97;;;10.65;100.00
24858;BME280;12935;50.782;6.074;2023-04-19T05:28:07;100306.59;;;10.66;100.00
24858;BME280;12935;50.782;6.074;2023-04-19T05:30:33;100309.34;;;10.66;100.00
24858;BME280;12935;50.782;6.074;2023-04-19T05:32:59;100304.28;;;10.68;100.00
24858;BME280;12935;50.782;6.074;2023-04-19T05:35:24;100311.34;;;10.73;100.00
24858;BME280;12935;50.782;6.074;2023-04-19T05:37:49;100310.19;;;10.74;100.00
24858;BME280;12935;50.782;6.074;2023-04-19T05:40:15;100308.25;;;10.74;100.00
24858;BME280;12935;50.782;6.074;2023-04-19T05:42:40;100309.44;;;10.77;100.00
24858;BME280;12935;50.782;6.074;2023-04-19T05:45:06;100309.84;;;10.79;100.00
24858;BME280;12935;50.782;6.074;2023-04-19T05:47:32;100312.28;;;10.87;100.00
24858;BME280;12935;50.782;6.074;2023-04-19T05:49:57;100297.06;;;10.90;100.00
24858;BME280;12935;50.782;6.074;2023-04-19T05:52:22;100304.56;;;10.97;100.00
24858;BME280;12935;50.782;6.074;2023-04-19T05:54:47;100296.00;;;10.98;100.00
24858;BME280;12935;50.782;6.074;2023-04-19T05:57:13;100303.03;;;11.03;100.00
24858;BME280;12935;50.782;6.074;2023-04-19T05:59:38;100308.19;;;11.08;100.00
24858;BME280;12935;50.782;6.074;2023-04-19T06:02:03;100305.47;;;11.11;100.00
24858;BME280;12935;50.782;6.074;2023-04-19T06:04:29;100312.88;;;11.07;100.00
24858;BME280;12935;50.782;6.074;2023-04-19T06:06:54;100302.38;;;11.13;100.00
24858;BME280;12935;50.782;6.074;2023-04-19T06:09:19;100309.34;;;11.07;100.00
24858;BME280;12935;50.782;6.074;2023-04-19T06:11:45;100300.84;;;11.15;100.00
24858;BME280;12935;50.782;6.074;2023-04-19T06:14:11;100295.03;;;11.24;100.00
24858;BME280;12935;50.782;6.074;2023-04-19T06:16:38;100298.59;;;11.28;100.00
24858;BME280;12935;50.782;6.074;2023-04-19T06:19:04;100307.28;;;11.41;100.00
24858;BME280;12935;50.782;6.074;2023-04-19T06:21:30;100305.38;;;11.45;100.00
24858;BME280;12935;50.782;6.074;2023-04-19T06:23:55;100310.50;;;11.53;100.00
24858;BME280;12935;50.782;6.074;2023-04-19T06:26:21;100296.06;;;11.56;100.00
24858;BME280;12935;50.782;6.074;2023-04-19T06:28:46;100298.88;;;11.64;100.00
24858;BME280;12935;50.782;6.074;2023-04-19T06:31:11;100303.97;;;11.69;100.00
24858;BME280;12935;50.782;6.074;2023-04-19T06:33:36;100305.97;;;11.75;100.00
24858;BME280;12935;50.782;6.074;2023-04-19T06:36:02;100305.94;;;11.72;100.00
24858;BME280;12935;50.782;6.074;2023-04-19T06:38:28;100307.59;;;11.80;100.00
24858;BME280;12935;50.782;6.074;2023-04-19T06:40:53;100315.06;;;11.86;100.00
24858;BME280;12935;50.782;6.074;2023-04-19T06:43:19;100311.19;;;11.91;100.00
24858;BME280;12935;50.782;6.074;2023-04-19T06:45:45;100313.16;;;11.98;100.00
24858;BME280;12935;50.782;6.074;2023-04-19T06:48:11;100313.97;;;12.02;100.00
24858;BME280;12935;50.782;6.074;2023-04-19T06:50:36;100312.03;;;12.02;100.00
24858;BME280;12935;50.782;6.074;2023-04-19T06:53:01;100314.03;;;12.09;100.00
24858;BME280;12935;50.782;6.074;2023-04-19T06:55:26;100322.28;;;12.19;100.00
24858;BME280;12935;50.782;6.074;2023-04-19T06:57:52;100323.44;;;12.18;100.00
24858;BME280;12935;50.782;6.074;2023-04-19T07:00:17;100316.75;;;12.12;100.00
24858;BME280;12935;50.782;6.074;2023-04-19T07:02:43;100318.31;;;12.06;100.00
24858;BME280;12935;50.782;6.074;2023-04-19T07:05:08;100300.34;;;12.16;100.00
24858;BME280;12935;50.782;6.074;2023-04-19T07:07:33;100310.59;;;12.26;100.00
24858;BME280;12935;50.782;6.074;2023-04-19T07:09:59;100305.94;;;12.41;100.00
24858;BME280;12935;50.782;6.074;2023-04-19T07:12:24;100309.09;;;12.43;100.00
24858;BME280;12935;50.782;6.074;2023-04-19T07:14:49;100310.19;;;12.31;100.00
24858;BME280;12935;50.782;6.074;2023-04-19T07:17:21;100307.47;;;12.31;100.00
24858;BME280;12935;50.782;6.074;2023-04-19T07:19:47;100306.72;;;12.45;100.00
24858;BME280;12935;50.782;6.074;2023-04-19T07:22:13;100313.66;;;12.17;100.00
24858;BME280;12935;50.782;6.074;2023-04-19T07:24:38;100310.53;;;12.19;100.00
24858;BME280;12935;50.782;6.074;2023-04-19T07:27:06;100314.16;;;12.37;100.00
24858;BME280;12935;50.782;6.074;2023-04-19T07:29:33;100309.09;;;12.46;100.00
24858;BME280;12935;50.782;6.074;2023-04-19T07:31:58;100313.03;;;12.56;100.00
24858;BME280;12935;50.782;6.074;2023-04-19T07:34:26;100305.63;;;12.63;100.00
24858;BME280;12935;50.782;6.074;2023-04-19T07:36:51;100306.84;;;12.73;100.00
24858;BME280;12935;50.782;6.074;2023-04-19T07:39:17;100301.31;;;12.59;100.00
24858;BME280;12935;50.782;6.074;2023-04-19T07:41:43;100305.63;;;12.67;100.00
24858;BME280;12935;50.782;6.074;2023-04-19T07:44:08;100300.09;;;12.60;100.00
24858;BME280;12935;50.782;6.074;2023-04-19T07:46:35;100305.66;;;12.71;100.00
24858;BME280;12935;50.782;6.074;2023-04-19T07:49:00;100303.31;;;12.83;100.00
24858;BME280;12935;50.782;6.074;2023-04-19T07:51:26;100304.09;;;12.91;100.00
24858;BME280;12935;50.782;6.074;2023-04-19T07:53:51;100301.41;;;13.05;100.00
24858;BME280;12935;50.782;6.074;2023-04-19T07:56:16;100299.38;;;12.77;100.00
24858;BME280;12935;50.782;6.074;2023-04-19T07:58:43;100304.06;;;12.59;100.00
24858;BME280;12935;50.782;6.074;2023-04-19T08:01:09;100301.66;;;12.47;100.00
24858;BME280;12935;50.782;6.074;2023-04-19T08:03:34;100299.72;;;12.54;100.00
24858;BME280;12935;50.782;6.074;2023-04-19T08:06:01;100301.28;;;12.52;100.00
24858;BME280;12935;50.782;6.074;2023-04-19T08:08:26;100300.09;;;12.49;100.00
24858;BME280;12935;50.782;6.074;2023-04-19T08:10:52;100297.38;;;12.60;100.00
24858;BME280;12935;50.782;6.074;2023-04-19T08:13:19;100305.25;;;12.72;100.00
24858;BME280;12935;50.782;6.074;2023-04-19T08:15:44;100304.16;;;13.23;100.00
24858;BME280;12935;50.782;6.074;2023-04-19T08:18:10;100301.81;;;13.46;100.00
24858;BME280;12935;50.782;6.074;2023-04-19T08:20:35;100301.78;;;13.71;100.00
24858;BME280;12935;50.782;6.074;2023-04-19T08:23:02;100289.19;;;13.91;99.03
24858;BME280;12935;50.782;6.074;2023-04-19T08:25:30;100306.88;;;13.76;96.44
24858;BME280;12935;50.782;6.074;2023-04-19T08:27:55;100302.59;;;13.68;96.09
24858;BME280;12935;50.782;6.074;2023-04-19T08:30:21;100300.22;;;13.74;95.28
24858;BME280;12935;50.782;6.074;2023-04-19T08:32:46;100300.97;;;13.88;95.66
24858;BME280;12935;50.782;6.074;2023-04-19T08:35:12;100306.06;;;14.00;94.97
24858;BME280;12935;50.782;6.074;2023-04-19T08:37:37;100298.13;;;14.17;92.14
24858;BME280;12935;50.782;6.074;2023-04-19T08:40:03;100301.63;;;14.28;91.65
24858;BME280;12935;50.782;6.074;2023-04-19T08:42:30;100304.06;;;14.04;89.84
24858;BME280;12935;50.782;6.074;2023-04-19T08:44:56;100297.47;;;13.63;91.11
24858;BME280;12935;50.782;6.074;2023-04-19T08:47:24;100285.31;;;13.60;93.69
24858;BME280;12935;50.782;6.074;2023-04-19T08:49:51;100285.66;;;13.91;93.52
24858;BME280;12935;50.782;6.074;2023-04-19T08:52:18;100279.31;;;14.15;90.79
24858;BME280;12935;50.782;6.074;2023-04-19T08:54:45;100278.84;;;14.31;88.10
24858;BME280;12935;50.782;6.074;2023-04-19T08:57:10;100280.78;;;14.45;87.06
24858;BME280;12935;50.782;6.074;2023-04-19T08:59:36;100275.59;;;14.57;85.88
24858;BME280;12935;50.782;6.074;2023-04-19T09:02:02;100274.34;;;14.65;86.01
24858;BME280;12935;50.782;6.074;2023-04-19T09:04:28;100274.75;;;14.67;85.07
24858;BME280;12935;50.782;6.074;2023-04-19T09:06:53;100276.84;;;14.42;86.58
24858;BME280;12935;50.782;6.074;2023-04-19T09:09:20;100259.06;;;14.61;87.14
24858;BME280;12935;50.782;6.074;2023-04-19T09:11:46;100266.63;;;14.43;85.47
24858;BME280;12935;50.782;6.074;2023-04-19T09:14:13;100267.41;;;14.43;87.46
24858;BME280;12935;50.782;6.074;2023-04-19T09:16:41;100272.03;;;14.60;84.28
24858;BME280;12935;50.782;6.074;2023-04-19T09:19:06;100268.41;;;14.74;82.41
24858;BME280;12935;50.782;6.074;2023-04-19T09:21:37;100266.94;;;14.62;83.25
24858;BME280;12935;50.782;6.074;2023-04-19T09:24:03;100264.66;;;14.47;82.32
24858;BME280;12935;50.782;6.074;2023-04-19T09:26:28;100253.13;;;14.66;83.33
24858;BME280;12935;50.782;6.074;2023-04-19T09:28:55;100259.56;;;15.00;82.98
24858;BME280;12935;50.782;6.074;2023-04-19T09:31:21;100250.53;;;15.00;82.85
24858;BME280;12935;50.782;6.074;2023-04-19T09:33:46;100265.81;;;15.08;82.54
24858;BME280;12935;50.782;6.074;2023-04-19T09:36:25;100258.50;;;14.87;79.33
24858;BME280;12935;50.782;6.074;2023-04-19T09:38:51;100246.56;;;15.08;78.47
24858;BME280;12935;50.782;6.074;2023-04-19T09:41:16;100248.44;;;15.18;78.58
24858;BME280;12935;50.782;6.074;2023-04-19T09:43:42;100247.66;;;15.59;77.61
24858;BME280;12935;50.782;6.074;2023-04-19T09:46:07;100246.59;;;15.87;73.15
24858;BME280;12935;50.782;6.074;2023-04-19T09:48:33;100241.22;;;16.06;73.49
24858;BME280;12935;50.782;6.074;2023-04-19T09:51:00;100239.69;;;16.36;72.64
24858;BME280;12935;50.782;6.074;2023-04-19T09:53:27;100234.09;;;16.70;71.42
24858;BME280;12935;50.782;6.074;2023-04-19T09:55:53;100244.19;;;17.07;70.49
24858;BME280;12935;50.782;6.074;2023-04-19T09:58:19;100244.88;;;17.34;68.83
24858;BME280;12935;50.782;6.074;2023-04-19T10:00:46;100243.16;;;16.97;62.32
24858;BME280;12935;50.782;6.074;2023-04-19T10:03:15;100239.91;;;17.02;64.82
24858;BME280;12935;50.782;6.074;2023-04-19T10:05:42;100232.75;;;17.51;63.30
24858;BME280;12935;50.782;6.074;2023-04-19T10:08:09;100232.81;;;17.71;59.57
24858;BME280;12935;50.782;6.074;2023-04-19T10:10:35;100232.25;;;17.57;58.88
24858;BME280;12935;50.782;6.074;2023-04-19T10:13:10;100228.31;;;17.34;57.41
24858;BME280;12935;50.782;6.074;2023-04-19T10:15:36;100222.56;;;17.02;58.15
24858;BME280;12935;50.782;6.074;2023-04-19T10:18:03;100227.78;;;17.43;58.62
24858;BME280;12935;50.782;6.074;2023-04-19T10:20:58;100201.25;;;17.02;57.14
24858;BME280;12935;50.782;6.074;2023-04-19T10:23:25;100221.06;;;17.21;56.08
24858;BME280;12935;50.782;6.074;2023-04-19T10:25:55;100223.22;;;17.96;56.40
24858;BME280;12935;50.782;6.074;2023-04-19T10:28:21;100206.22;;;18.33;54.17
24858;BME280;12935;50.782;6.074;2023-04-19T10:30:54;100199.94;;;18.85;52.04
24858;BME280;12935;50.782;6.074;2023-04-19T10:33:27;100201.13;;;19.00;49.84
24858;BME280;12935;50.782;6.074;2023-04-19T10:35:57;100193.00;;;19.54;49.17
24858;BME280;12935;50.782;6.074;2023-04-19T10:38:36;100207.56;;;20.00;46.51
24858;BME280;12935;50.782;6.074;2023-04-19T10:41:02;100206.69;;;19.45;46.01
24858;BME280;12935;50.782;6.074;2023-04-19T10:43:30;100198.53;;;18.61;43.26
24858;BME280;12935;50.782;6.074;2023-04-19T10:45:59;100210.81;;;18.23;46.52
24858;BME280;12935;50.782;6.074;2023-04-19T10:51:14;100205.28;;;18.23;45.64
24858;BME280;12935;50.782;6.074;2023-04-19T10:53:48;100191.75;;;17.70;43.63
24858;BME280;12935;50.782;6.074;2023-04-19T10:56:16;100204.94;;;17.82;45.12
24858;BME280;12935;50.782;6.074;2023-04-19T11:01:31;100193.47;;;18.39;42.69
24858;BME280;12935;50.782;6.074;2023-04-19T11:03:57;100180.22;;;19.28;43.75
24858;BME280;12935;50.782;6.074;2023-04-19T11:06:23;100187.06;;;19.69;43.95
24858;BME280;12935;50.782;6.074;2023-04-19T11:08:51;100201.88;;;19.91;41.01
24858;BME280;12935;50.782;6.074;2023-04-19T11:11:17;100186.63;;;20.24;40.91
24858;BME280;12935;50.782;6.074;2023-04-19T11:13:43;100173.78;;;20.43;40.88
24858;BME280;12935;50.782;6.074;2023-04-19T11:16:09;100176.06;;;20.19;40.02
24858;BME280;12935;50.782;6.074;2023-04-19T11:18:34;100170.75;;;20.63;38.50
24858;BME280;12935;50.782;6.074;2023-04-19T11:21:00;100176.88;;;20.71;38.24
24858;BME280;12935;50.782;6.074;2023-04-19T11:23:25;100169.09;;;21.13;37.34
24858;BME280;12935;50.782;6.074;2023-04-19T11:25:51;100175.97;;;21.33;37.22
24858;BME280;12935;50.782;6.074;2023-04-19T11:28:17;100156.66;;;21.17;35.11
24858;BME280;12935;50.782;6.074;2023-04-19T11:30:43;100145.31;;;21.12;37.30
24858;BME280;12935;50.782;6.074;2023-04-19T11:33:11;100140.53;;;20.02;37.29
24858;BME280;12935;50.782;6.074;2023-04-19T11:35:36;100140.47;;;20.56;36.64
24858;BME280;12935;50.782;6.074;2023-04-19T11:38:02;100130.78;;;20.73;34.74
24858;BME280;12935;50.782;6.074;2023-04-19T11:40:29;100135.81;;;21.00;35.56
24858;BME280;12935;50.782;6.074;2023-04-19T11:42:57;100135.56;;;21.42;35.17
24858;BME280;12935;50.782;6.074;2023-04-19T11:45:29;100129.09;;;21.23;35.31
24858;BME280;12935;50.782;6.074;2023-04-19T11:47:56;100138.78;;;20.20;33.81
24858;BME280;12935;50.782;6.074;2023-04-19T11:50:35;100131.13;;;20.97;34.75
24858;BME280;12935;50.782;6.074;2023-04-19T11:53:14;100130.22;;;20.65;34.03
24858;BME280;12935;50.782;6.074;2023-04-19T11:55:50;100127.47;;;21.78;33.71
24858;BME280;12935;50.782;6.074;2023-04-19T12:00:52;100133.03;;;21.34;32.08
24858;BME280;12935;50.782;6.074;2023-04-19T12:03:21;100125.38;;;20.44;34.21
24858;BME280;12935;50.782;6.074;2023-04-19T12:05:59;100104.16;;;21.54;33.75
24858;BME280;12935;50.782;6.074;2023-04-19T12:08:35;100121.44;;;22.01;33.21
24858;BME280;12935;50.782;6.074;2023-04-19T12:11:02;100119.44;;;22.02;31.30
24858;BME280;12935;50.782;6.074;2023-04-19T12:13:28;100112.66;;;20.69;31.97
24858;BME280;12935;50.782;6.074;2023-04-19T12:15:54;100116.25;;;21.04;34.38
24858;BME280;12935;50.782;6.074;2023-04-19T12:18:21;100114.91;;;21.74;33.68
24858;BME280;12935;50.782;6.074;2023-04-19T12:20:47;100113.97;;;21.67;32.40
24858;BME280;12935;50.782;6.074;2023-04-19T12:23:14;100114.53;;;21.84;32.10
24858;BME280;12935;50.782;6.074;2023-04-19T12:25:41;100121.03;;;21.38;31.03
24858;BME280;12935;50.782;6.074;2023-04-19T12:28:06;100108.88;;;20.75;32.41
24858;BME280;12935;50.782;6.074;2023-04-19T12:30:32;100106.34;;;21.02;33.12
24858;BME280;12935;50.782;6.074;2023-04-19T12:32:59;100110.81;;;21.56;32.07
24858;BME280;12935;50.782;6.074;2023-04-19T12:35:25;100108.88;;;22.37;30.36
24858;BME280;12935;50.782;6.074;2023-04-19T12:37:55;100116.56;;;22.64;29.43
24858;BME280;12935;50.782;6.074;2023-04-19T12:40:21;100109.03;;;21.72;29.79
24858;BME280;12935;50.782;6.074;2023-04-19T12:42:46;100111.19;;;21.67;30.81
24858;BME280;12935;50.782;6.074;2023-04-19T12:45:12;100108.28;;;21.49;30.71
24858;BME280;12935;50.782;6.074;2023-04-19T12:47:41;100098.56;;;22.47;29.74